MUMZ/MZO METAR and TAF weather

Enter ICAO airport designator
Station Type Date Time Source
MUMZ METAR 2018/09/24 23:00 UTC NOAA

MUMZ 242300Z AUTO 18004KT 140V230 24/23 Q1014


Station Type Date Time Source
MUMZ Decoded METAR 2018/09/24 23:00 UTC NOAA

Manzanillo, Oriente, Cuba (MUMZ) 20-20N 077-07W 60M
Sep 24, 2018 - 07:00 PM EDT / 2018.09.24 2300 UTC
Wind: from the S (180 degrees) at 5 MPH (4 KT) (direction variable):0
Temperature: 75 F (24 C)
Dew Point: 73 F (23 C)
Relative Humidity: 94%
Pressure (altimeter): 29.94 in. Hg (1014 hPa)
ob: MUMZ 242300Z AUTO 18004KT 140V230 24/23 Q1014
cycle: 23

Station Type Date Time Source
MUMZ TAF 2018/12/10 12:48 UTC NOAA

TAF MUMZ 101100Z 1012/1024 VRB03KT 9000 SCT020


Example: see airport list